createdAt,value
2018-01-26T00:02:14.755Z,99.90
2018-01-26T00:04:48.475Z,99.90
2018-01-26T00:07:22.124Z,99.90
2018-01-26T00:09:55.805Z,99.90
2018-01-26T00:12:29.470Z,99.90
2018-01-26T00:15:03.089Z,99.90
2018-01-26T00:17:36.647Z,99.90
2018-01-26T00:20:10.975Z,99.90
2018-01-26T00:22:44.749Z,99.90
2018-01-26T00:25:18.437Z,99.90
2018-01-26T00:27:52.086Z,99.90
2018-01-26T00:30:25.641Z,99.90
2018-01-26T00:32:59.311Z,99.90
2018-01-26T00:35:33.020Z,99.90
2018-01-26T00:38:06.572Z,99.90
2018-01-26T00:40:40.214Z,99.90
2018-01-26T00:43:13.748Z,99.90
2018-01-26T00:45:47.315Z,99.90
2018-01-26T00:48:21.019Z,99.90
2018-01-26T00:50:54.605Z,99.90
2018-01-26T00:53:28.164Z,99.90
2018-01-26T00:56:01.812Z,99.90
2018-01-26T00:58:35.388Z,99.90
2018-01-26T01:01:09.835Z,99.90
2018-01-26T01:03:43.396Z,99.90
2018-01-26T01:06:17.019Z,99.90
2018-01-26T01:08:50.701Z,99.90
2018-01-26T01:11:25.265Z,99.90
2018-01-26T01:13:58.984Z,99.90
2018-01-26T01:16:32.660Z,99.90
2018-01-26T01:19:06.251Z,99.90
2018-01-26T01:21:39.846Z,99.90
2018-01-26T01:24:13.388Z,99.90
2018-01-26T01:26:47.169Z,99.90
2018-01-26T01:29:21.484Z,99.90
2018-01-26T01:31:55.099Z,99.90
2018-01-26T01:34:28.671Z,99.90
2018-01-26T01:37:02.422Z,99.90
2018-01-26T01:39:37.632Z,99.90
2018-01-26T01:42:11.319Z,99.90
2018-01-26T01:44:44.926Z,99.90
2018-01-26T01:47:18.534Z,99.90
2018-01-26T01:49:52.206Z,99.90
2018-01-26T01:52:25.953Z,99.90
2018-01-26T01:54:59.541Z,99.90
2018-01-26T01:57:33.877Z,99.90
2018-01-26T02:00:07.469Z,99.90
2018-01-26T02:02:41.057Z,99.90
2018-01-26T02:05:15.364Z,99.90
2018-01-26T02:07:49.190Z,99.90
2018-01-26T02:10:23.469Z,99.90
2018-01-26T02:12:57.137Z,99.90
2018-01-26T02:15:30.792Z,99.90
2018-01-26T02:18:05.116Z,99.90
2018-01-26T02:20:38.624Z,99.90
2018-01-26T02:23:12.219Z,99.90
2018-01-26T02:25:45.822Z,99.90
2018-01-26T02:28:19.537Z,99.90
2018-01-26T02:30:53.937Z,99.90
2018-01-26T02:33:27.516Z,99.90
2018-01-26T02:36:01.128Z,99.90
2018-01-26T02:38:34.797Z,99.90
2018-01-26T02:41:09.367Z,99.90
2018-01-26T02:43:42.986Z,99.90
2018-01-26T02:46:17.413Z,99.90
2018-01-26T02:48:50.999Z,99.90
2018-01-26T02:51:24.589Z,99.90
2018-01-26T02:53:58.180Z,99.90
2018-01-26T02:56:31.785Z,99.90
2018-01-26T02:59:05.386Z,99.90
2018-01-26T03:01:38.899Z,99.90
2018-01-26T03:04:12.518Z,99.90
2018-01-26T03:06:46.245Z,99.90
2018-01-26T03:09:19.894Z,99.90
2018-01-26T03:11:53.585Z,99.90
2018-01-26T03:14:27.162Z,99.90
2018-01-26T03:17:00.888Z,99.90
2018-01-26T03:19:34.453Z,99.90
2018-01-26T03:22:08.095Z,99.90
2018-01-26T03:24:41.631Z,99.90
2018-01-26T03:27:15.910Z,99.90
2018-01-26T03:29:50.225Z,99.90
2018-01-26T03:32:23.955Z,99.90
2018-01-26T03:34:57.493Z,99.90
2018-01-26T03:37:31.252Z,99.90
2018-01-26T03:40:04.955Z,99.90
2018-01-26T03:42:38.635Z,99.90
2018-01-26T03:45:12.349Z,99.90
2018-01-26T03:47:46.078Z,99.90
2018-01-26T03:50:19.622Z,99.90
2018-01-26T03:52:53.280Z,99.90
2018-01-26T03:55:26.954Z,99.90
2018-01-26T03:58:00.694Z,99.90
2018-01-26T04:00:34.176Z,99.90
2018-01-26T04:03:07.729Z,99.90
2018-01-26T04:05:41.236Z,99.90
2018-01-26T04:08:14.935Z,99.90
2018-01-26T04:10:48.692Z,99.90
2018-01-26T04:13:22.240Z,99.90
2018-01-26T04:15:55.886Z,99.90
2018-01-26T04:18:29.459Z,99.90
2018-01-26T04:21:03.158Z,99.90
2018-01-26T04:23:37.551Z,99.90
2018-01-26T04:26:11.110Z,99.90
2018-01-26T04:28:44.705Z,99.90
2018-01-26T04:31:18.389Z,99.90
2018-01-26T04:33:51.920Z,99.90
2018-01-26T04:36:25.481Z,99.90
2018-01-26T04:38:59.184Z,99.90
2018-01-26T04:41:33.747Z,99.90
2018-01-26T04:44:07.417Z,99.90
2018-01-26T04:46:40.957Z,99.90
2018-01-26T04:49:14.514Z,99.90
2018-01-26T04:51:48.047Z,99.90
2018-01-26T04:54:21.746Z,99.90
2018-01-26T04:56:56.033Z,99.90
2018-01-26T04:59:29.624Z,99.90
2018-01-26T05:02:03.154Z,99.90
2018-01-26T05:04:36.964Z,99.90
2018-01-26T05:07:10.738Z,99.90
2018-01-26T05:09:44.316Z,99.90
2018-01-26T05:12:17.899Z,99.90
2018-01-26T05:14:51.474Z,99.90
2018-01-26T05:17:25.036Z,99.90
2018-01-26T05:19:58.541Z,99.90
2018-01-26T05:22:32.069Z,99.90
2018-01-26T05:25:05.616Z,99.90
2018-01-26T05:27:39.358Z,99.90
2018-01-26T05:30:13.014Z,99.90
2018-01-26T05:32:46.580Z,99.90
2018-01-26T05:35:20.973Z,99.90
2018-01-26T05:37:54.712Z,99.90
2018-01-26T05:40:28.295Z,99.90
2018-01-26T05:43:01.988Z,99.90
2018-01-26T05:45:36.284Z,99.90
2018-01-26T05:48:09.827Z,99.90
2018-01-26T05:50:43.400Z,99.90
2018-01-26T05:53:17.851Z,99.90
2018-01-26T05:55:52.322Z,99.90
2018-01-26T05:58:25.899Z,99.90
2018-01-26T06:00:59.428Z,99.90
2018-01-26T06:03:33.124Z,99.90
2018-01-26T06:06:07.454Z,99.90
2018-01-26T06:08:41.790Z,99.90
2018-01-26T06:11:15.346Z,99.90
2018-01-26T06:13:49.004Z,99.90
2018-01-26T06:16:22.552Z,99.90
2018-01-26T06:18:56.284Z,99.90
2018-01-26T06:21:30.011Z,99.90
2018-01-26T06:24:03.582Z,99.90
2018-01-26T06:26:37.306Z,99.90
2018-01-26T06:29:11.028Z,99.90
2018-01-26T06:31:44.600Z,99.90
2018-01-26T06:34:18.136Z,99.90
2018-01-26T06:36:51.656Z,99.90
2018-01-26T06:39:25.292Z,99.90
2018-01-26T06:41:58.907Z,99.90
2018-01-26T06:44:32.415Z,99.90
2018-01-26T06:47:06.157Z,99.90
2018-01-26T06:49:39.821Z,99.90
2018-01-26T06:52:14.323Z,99.90
2018-01-26T06:54:48.161Z,99.90
2018-01-26T06:57:21.751Z,99.90
2018-01-26T06:59:55.411Z,99.90
2018-01-26T07:02:29.832Z,99.90
2018-01-26T07:05:03.392Z,99.90
2018-01-26T07:07:37.014Z,99.90
2018-01-26T07:10:11.558Z,99.90
2018-01-26T07:12:45.167Z,99.90
2018-01-26T07:15:18.695Z,99.90
2018-01-26T07:17:52.268Z,99.90
2018-01-26T07:20:25.976Z,99.90
2018-01-26T07:22:59.667Z,99.90
2018-01-26T07:25:33.184Z,99.90
2018-01-26T07:28:06.733Z,99.90
2018-01-26T07:30:40.301Z,99.90
2018-01-26T07:33:13.807Z,99.90
2018-01-26T07:35:47.360Z,99.90
2018-01-26T07:38:21.893Z,99.90
2018-01-26T07:40:55.602Z,99.90
2018-01-26T07:43:30.001Z,99.90
2018-01-26T07:46:03.633Z,99.90
2018-01-26T07:48:38.264Z,99.90
2018-01-26T07:51:11.945Z,99.90
2018-01-26T07:53:45.437Z,99.90
2018-01-26T07:56:19.033Z,99.90
2018-01-26T07:58:52.616Z,99.90
2018-01-26T08:01:26.320Z,99.90
2018-01-26T08:04:00.040Z,99.90
2018-01-26T08:06:33.741Z,99.90
2018-01-26T08:09:07.290Z,99.90
2018-01-26T08:11:40.958Z,99.90
2018-01-26T08:14:14.540Z,99.90
2018-01-26T08:16:48.064Z,99.90
2018-01-26T08:19:21.758Z,99.90
2018-01-26T08:21:55.483Z,99.90
2018-01-26T08:24:29.072Z,99.90
2018-01-26T08:27:02.955Z,99.90
2018-01-26T08:29:36.448Z,99.90
2018-01-26T08:32:10.016Z,99.90
2018-01-26T08:34:43.790Z,99.90
2018-01-26T08:37:17.373Z,99.90
2018-01-26T08:39:50.955Z,99.90
2018-01-26T08:42:24.558Z,99.90
2018-01-26T08:44:58.088Z,99.90
2018-01-26T08:47:31.784Z,99.90
2018-01-26T08:50:05.370Z,99.90
2018-01-26T08:52:38.997Z,99.90
2018-01-26T08:55:15.516Z,99.90
2018-01-26T08:57:49.257Z,99.90
2018-01-26T09:00:22.953Z,99.90
2018-01-26T09:02:56.669Z,99.90
2018-01-26T09:05:30.354Z,99.90
2018-01-26T09:08:04.670Z,99.90
2018-01-26T09:10:38.246Z,99.90
2018-01-26T09:13:11.774Z,99.90
2018-01-26T09:15:46.253Z,99.90
2018-01-26T09:18:19.971Z,99.90
2018-01-26T09:20:53.601Z,99.90
2018-01-26T09:23:27.168Z,99.90
2018-01-26T09:26:00.927Z,99.90
2018-01-26T09:28:34.482Z,99.90
2018-01-26T09:31:08.001Z,99.90
2018-01-26T09:33:41.688Z,99.90
2018-01-26T09:36:15.393Z,99.90
2018-01-26T09:38:49.110Z,99.90
2018-01-26T09:41:22.659Z,99.90
2018-01-26T09:43:57.033Z,99.90
2018-01-26T09:46:30.543Z,99.90
2018-01-26T09:49:04.236Z,99.90
2018-01-26T09:51:37.830Z,99.90
2018-01-26T09:54:11.365Z,99.90
2018-01-26T09:56:45.030Z,99.90
2018-01-26T09:59:18.771Z,99.90
2018-01-26T10:01:52.311Z,99.90
2018-01-26T10:04:25.846Z,99.90
2018-01-26T10:07:00.190Z,99.90
2018-01-26T10:09:33.728Z,99.90
2018-01-26T10:12:07.252Z,99.90
2018-01-26T10:14:40.851Z,99.90
2018-01-26T10:17:14.436Z,99.90
2018-01-26T10:19:47.978Z,99.90
2018-01-26T10:22:21.673Z,99.90
2018-01-26T10:24:55.369Z,99.90
2018-01-26T10:27:28.926Z,99.90
2018-01-26T10:30:02.614Z,99.90
2018-01-26T10:32:36.728Z,99.90
2018-01-26T10:35:10.449Z,99.90
2018-01-26T10:37:43.978Z,99.90
2018-01-26T10:40:17.507Z,99.90
2018-01-26T10:42:51.083Z,99.90
2018-01-26T10:45:25.387Z,99.90
2018-01-26T10:47:59.022Z,99.90
2018-01-26T10:50:32.563Z,99.90
2018-01-26T10:53:06.129Z,99.90
2018-01-26T10:55:39.777Z,99.90
2018-01-26T10:58:13.282Z,99.90
2018-01-26T11:00:46.928Z,99.90
2018-01-26T11:03:20.513Z,99.90
2018-01-26T11:05:54.090Z,99.90
2018-01-26T11:08:27.587Z,99.90
2018-01-26T11:11:02.093Z,99.90
2018-01-26T11:13:35.827Z,99.90
2018-01-26T11:16:09.309Z,99.90
2018-01-26T11:18:42.901Z,99.90
2018-01-26T11:21:16.540Z,99.90
2018-01-26T11:23:50.089Z,99.90
2018-01-26T11:26:23.685Z,99.90
2018-01-26T11:28:58.425Z,99.90
2018-01-26T11:31:32.766Z,99.90
2018-01-26T11:34:06.337Z,99.90
2018-01-26T11:36:40.884Z,98.10
2018-01-26T11:39:14.424Z,98.00
2018-01-26T11:41:47.993Z,97.50
2018-01-26T11:44:21.682Z,96.20
2018-01-26T11:46:55.381Z,95.80
2018-01-26T11:49:29.824Z,94.20
2018-01-26T11:52:03.548Z,94.10
2018-01-26T11:54:37.829Z,73.70
2018-01-26T11:57:11.431Z,73.70
2018-01-26T11:59:44.941Z,75.70
2018-01-26T12:02:18.523Z,77.00
2018-01-26T12:04:52.878Z,86.10
2018-01-26T12:07:26.364Z,86.10
2018-01-26T12:10:00.082Z,90.10
2018-01-26T12:12:33.638Z,87.60
2018-01-26T12:15:07.201Z,90.60
2018-01-26T12:17:40.732Z,91.40
2018-01-26T12:20:14.446Z,91.30
2018-01-26T12:22:48.054Z,83.50
2018-01-26T12:25:21.899Z,79.70
2018-01-26T12:27:55.684Z,76.90
2018-01-26T12:30:29.569Z,75.10
2018-01-26T12:33:03.610Z,70.30
2018-01-26T12:35:37.556Z,67.00
2018-01-26T12:38:11.088Z,70.40
2018-01-26T12:40:44.768Z,66.70
2018-01-26T12:43:18.489Z,65.00
2018-01-26T12:45:52.274Z,65.30
2018-01-26T12:48:25.836Z,67.10
2018-01-26T12:50:59.535Z,66.10
2018-01-26T12:53:33.214Z,67.20
2018-01-26T12:56:06.837Z,64.40
2018-01-26T12:58:41.329Z,60.50
2018-01-26T13:01:15.077Z,60.50
2018-01-26T13:03:48.676Z,60.70
2018-01-26T13:06:22.461Z,61.40
2018-01-26T13:08:56.120Z,62.50
2018-01-26T13:11:29.798Z,62.30
2018-01-26T13:14:04.300Z,66.10
2018-01-26T13:16:37.815Z,66.10
2018-01-26T13:19:11.510Z,66.80
2018-01-26T13:21:45.100Z,67.40
2018-01-26T13:24:18.808Z,67.80
2018-01-26T13:26:52.404Z,66.80
2018-01-26T13:29:26.138Z,67.80
2018-01-26T13:32:00.573Z,68.70
2018-01-26T13:34:34.356Z,68.60
2018-01-26T13:37:07.952Z,69.10
2018-01-26T13:39:41.761Z,69.00
2018-01-26T13:42:15.268Z,68.00
2018-01-26T13:44:48.874Z,69.40
2018-01-26T13:47:22.431Z,65.10
2018-01-26T13:49:56.139Z,68.60
2018-01-26T13:52:29.815Z,69.20
2018-01-26T13:55:03.372Z,69.10
2018-01-26T13:57:37.091Z,67.20
2018-01-26T14:00:10.676Z,69.20
2018-01-26T14:02:44.201Z,70.80
2018-01-26T14:05:17.799Z,72.50
2018-01-26T14:07:51.559Z,76.50
2018-01-26T14:10:25.119Z,77.30
2018-01-26T14:12:58.777Z,79.80
2018-01-26T14:15:32.379Z,81.30
2018-01-26T14:18:05.892Z,77.80
2018-01-26T14:20:40.419Z,76.50
2018-01-26T14:23:14.050Z,76.50
2018-01-26T14:25:47.627Z,76.80
2018-01-26T14:28:21.952Z,76.90
2018-01-26T14:30:56.257Z,75.80
2018-01-26T14:33:30.011Z,75.60
2018-01-26T14:36:03.545Z,77.70
2018-01-26T14:38:37.889Z,75.50
2018-01-26T14:41:11.682Z,75.40
2018-01-26T14:43:45.264Z,74.50
2018-01-26T14:46:18.760Z,75.70
2018-01-26T14:48:52.480Z,76.50
2018-01-26T14:51:26.210Z,79.80
2018-01-26T14:53:59.792Z,81.30
2018-01-26T14:56:33.484Z,79.90
2018-01-26T14:59:07.035Z,79.60
2018-01-26T15:01:40.852Z,80.90
2018-01-26T15:04:14.509Z,79.90
2018-01-26T15:06:48.122Z,78.40
2018-01-26T15:09:21.706Z,75.80
2018-01-26T15:11:55.236Z,78.60
2018-01-26T15:14:29.627Z,79.10
2018-01-26T15:17:03.148Z,79.00
2018-01-26T15:19:36.877Z,78.90
2018-01-26T15:22:10.477Z,81.50
2018-01-26T15:24:44.175Z,81.20
2018-01-26T15:27:17.670Z,84.00
2018-01-26T15:29:51.261Z,83.50
2018-01-26T15:32:24.845Z,83.50
2018-01-26T15:34:58.549Z,80.40
2018-01-26T15:37:32.163Z,82.60
2018-01-26T15:40:05.897Z,84.90
2018-01-26T15:42:39.759Z,86.40
2018-01-26T15:45:14.062Z,91.70
2018-01-26T15:47:48.092Z,91.60
2018-01-26T15:50:22.057Z,92.20
2018-01-26T15:52:55.576Z,92.20
2018-01-26T15:55:30.210Z,94.90
2018-01-26T15:58:04.029Z,94.80
2018-01-26T16:00:37.785Z,94.60
2018-01-26T16:03:11.500Z,94.50
2018-01-26T16:05:45.601Z,95.00
2018-01-26T16:08:19.269Z,95.10
2018-01-26T16:10:53.580Z,94.90
2018-01-26T16:13:27.189Z,94.90
2018-01-26T16:16:03.736Z,95.60
2018-01-26T16:18:37.370Z,95.50
2018-01-26T16:21:11.162Z,98.00
2018-01-26T16:23:44.828Z,99.90
2018-01-26T16:26:18.457Z,99.90
2018-01-26T16:28:52.305Z,99.90
2018-01-26T16:31:25.893Z,99.90
2018-01-26T16:34:00.507Z,99.40
2018-01-26T16:36:34.101Z,99.40
2018-01-26T16:39:07.643Z,99.30
2018-01-26T16:41:41.468Z,99.10
2018-01-26T16:44:15.035Z,99.10
2018-01-26T16:46:49.658Z,99.70
2018-01-26T16:49:23.218Z,99.70
2018-01-26T16:51:56.966Z,99.90
2018-01-26T16:54:30.726Z,99.90
2018-01-26T16:57:04.516Z,99.90
2018-01-26T16:59:38.124Z,99.90
2018-01-26T17:02:12.512Z,99.90
2018-01-26T17:04:46.461Z,99.90
2018-01-26T17:07:20.862Z,99.90
2018-01-26T17:09:54.536Z,99.90
2018-01-26T17:12:28.488Z,99.90
2018-01-26T17:15:02.212Z,99.90
2018-01-26T17:17:35.885Z,99.90
2018-01-26T17:20:09.479Z,99.90
2018-01-26T17:22:43.100Z,99.90
2018-01-26T17:25:16.668Z,99.90
2018-01-26T17:27:50.270Z,99.90
2018-01-26T17:30:23.912Z,99.90
2018-01-26T17:32:57.750Z,99.90
2018-01-26T17:35:31.555Z,99.90
2018-01-26T17:38:05.225Z,99.90
2018-01-26T17:40:38.907Z,99.90
2018-01-26T17:43:12.460Z,99.90
2018-01-26T17:45:47.157Z,99.90
2018-01-26T17:48:20.724Z,99.90
2018-01-26T17:50:54.466Z,99.90
2018-01-26T17:53:28.001Z,99.90
2018-01-26T17:56:01.525Z,99.90
2018-01-26T17:58:35.276Z,99.90
2018-01-26T18:01:08.830Z,99.90
2018-01-26T18:03:42.402Z,99.90
2018-01-26T18:06:16.071Z,99.90
2018-01-26T18:08:49.708Z,99.90
2018-01-26T18:11:24.116Z,99.90
2018-01-26T18:13:57.730Z,99.90
2018-01-26T18:16:31.252Z,99.90
2018-01-26T18:19:04.891Z,99.90
2018-01-26T18:21:40.230Z,99.90
2018-01-26T18:24:14.676Z,99.90
2018-01-26T18:26:48.511Z,99.90
2018-01-26T18:29:22.204Z,99.90
2018-01-26T18:31:55.877Z,99.90
2018-01-26T18:34:29.382Z,99.90
2018-01-26T18:37:03.017Z,99.90
2018-01-26T18:39:36.603Z,99.90
2018-01-26T18:42:11.001Z,99.90
2018-01-26T18:44:44.557Z,99.90
2018-01-26T18:47:18.301Z,99.90
2018-01-26T18:49:52.046Z,99.90
2018-01-26T18:52:25.714Z,99.90
2018-01-26T18:54:59.559Z,99.90
2018-01-26T18:57:33.332Z,99.90
2018-01-26T19:00:06.869Z,99.90
2018-01-26T19:02:40.589Z,99.90
2018-01-26T19:05:14.166Z,99.90
2018-01-26T19:07:47.784Z,99.90
2018-01-26T19:10:21.616Z,99.90
2018-01-26T19:12:56.160Z,99.90
2018-01-26T19:15:29.885Z,99.90
2018-01-26T19:18:03.441Z,99.90
2018-01-26T19:20:37.216Z,99.90
2018-01-26T19:23:10.823Z,99.90
2018-01-26T19:25:44.578Z,99.90
2018-01-26T19:28:19.167Z,99.90
2018-01-26T19:30:52.804Z,99.90
2018-01-26T19:33:26.497Z,99.90
2018-01-26T19:36:00.909Z,99.90
2018-01-26T19:38:34.656Z,99.90
2018-01-26T19:41:08.385Z,99.90
2018-01-26T19:43:41.995Z,99.90
2018-01-26T19:46:19.203Z,99.90
2018-01-26T19:48:53.712Z,99.90
2018-01-26T19:51:27.386Z,99.90
2018-01-26T19:54:01.853Z,99.90
2018-01-26T19:56:35.519Z,99.90
2018-01-26T19:59:09.181Z,99.90
2018-01-26T20:01:42.754Z,99.90
2018-01-26T20:04:27.586Z,99.90
2018-01-26T20:07:32.591Z,99.90
2018-01-26T20:10:06.278Z,99.90
2018-01-26T20:12:45.734Z,99.90
2018-01-26T20:15:19.341Z,99.90
2018-01-26T20:17:53.114Z,99.90
2018-01-26T20:20:26.903Z,99.90
2018-01-26T20:23:00.511Z,99.90
2018-01-26T20:25:34.285Z,99.90
2018-01-26T20:28:08.050Z,99.90
2018-01-26T20:30:41.795Z,99.90
2018-01-26T20:33:15.445Z,99.90
2018-01-26T20:35:49.450Z,99.90
2018-01-26T20:38:23.183Z,99.90
2018-01-26T20:40:56.800Z,99.90
2018-01-26T20:43:30.345Z,99.90
2018-01-26T20:46:04.869Z,99.90
2018-01-26T20:48:38.543Z,99.90
2018-01-26T20:51:12.284Z,99.90
2018-01-26T20:53:45.953Z,99.90
2018-01-26T20:56:19.720Z,99.90
2018-01-26T20:58:53.291Z,99.90
2018-01-26T21:01:28.765Z,99.90
2018-01-26T21:04:02.368Z,99.90
2018-01-26T21:06:36.301Z,99.90
2018-01-26T21:09:10.053Z,99.90
2018-01-26T21:11:43.726Z,99.90
2018-01-26T21:14:17.553Z,99.90
2018-01-26T21:16:52.058Z,99.90
2018-01-26T21:19:25.757Z,99.90
2018-01-26T21:21:59.599Z,99.90
2018-01-26T21:24:33.211Z,99.90
2018-01-26T21:27:06.948Z,99.90
2018-01-26T21:29:40.686Z,99.90
2018-01-26T21:32:14.544Z,99.90
2018-01-26T21:34:48.198Z,99.90
2018-01-26T21:37:22.029Z,99.90
2018-01-26T21:39:55.593Z,99.90
2018-01-26T21:42:30.114Z,99.90
2018-01-26T21:45:03.979Z,99.90
2018-01-26T21:47:38.539Z,99.90
2018-01-26T21:50:13.053Z,99.90
2018-01-26T21:52:46.772Z,99.90
2018-01-26T21:55:20.579Z,99.90
2018-01-26T21:57:54.419Z,99.90
2018-01-26T22:00:28.239Z,99.90
2018-01-26T22:03:02.017Z,99.90
2018-01-26T22:05:38.834Z,99.90
2018-01-26T22:08:12.570Z,99.90
2018-01-26T22:10:46.231Z,99.90
2018-01-26T22:13:19.819Z,99.90
2018-01-26T22:15:53.434Z,99.90
2018-01-26T22:18:27.012Z,99.90
2018-01-26T22:21:00.592Z,99.90
2018-01-26T22:23:34.231Z,99.90
2018-01-26T22:26:08.686Z,99.90
2018-01-26T22:28:42.500Z,99.90
2018-01-26T22:31:16.060Z,99.90
2018-01-26T22:33:50.503Z,99.90
2018-01-26T22:36:24.098Z,99.90
2018-01-26T22:38:57.633Z,99.90
2018-01-26T22:41:31.418Z,99.90
2018-01-26T22:44:05.115Z,99.90
2018-01-26T22:46:38.678Z,99.90
2018-01-26T22:49:12.317Z,99.90
2018-01-26T22:51:45.870Z,99.90
2018-01-26T22:54:19.558Z,99.90
2018-01-26T22:56:53.472Z,99.90
2018-01-26T22:59:27.248Z,99.90
2018-01-26T23:02:00.774Z,99.90
2018-01-26T23:04:34.403Z,99.90
2018-01-26T23:07:08.217Z,99.90
2018-01-26T23:09:41.912Z,99.90
2018-01-26T23:12:15.546Z,99.90
2018-01-26T23:14:49.381Z,99.90
2018-01-26T23:17:23.097Z,99.90
2018-01-26T23:19:56.803Z,99.90
2018-01-26T23:22:30.526Z,99.90
2018-01-26T23:25:04.063Z,99.90
2018-01-26T23:27:38.483Z,99.90
2018-01-26T23:30:12.186Z,99.90
2018-01-26T23:32:45.743Z,99.90
2018-01-26T23:35:19.436Z,99.90
2018-01-26T23:37:53.061Z,99.90
2018-01-26T23:40:26.624Z,99.90
2018-01-26T23:43:00.216Z,99.90
2018-01-26T23:45:33.805Z,99.90
2018-01-26T23:48:07.563Z,99.90
2018-01-26T23:50:41.267Z,99.90
2018-01-26T23:53:15.052Z,99.90
2018-01-26T23:55:48.678Z,99.90
2018-01-26T23:58:22.296Z,99.90
